Time;durP1;ratioP1;P1;durP2;ratioP2;P2;SDS_P1;SDS_P2;PMS_P1;PMS_P2;Temp;Humidity;BMP_temperature;BMP_pressure;BME280_temperature;BME280_humidity;BME280_pressure;Samples;Min_cycle;Max_cycle;Signal;HPM_P1;HPM_P2
2022/08/26 00:00:50;;;;;;;0.30;0.30;;;18.20;32.20;;;;;;5063304;28;20684;-79
2022/08/26 00:03:17;;;;;;;0.30;0.30;;;18.20;1.00;;;;;;5063983;28;20203;-79
2022/08/26 00:05:45;;;;;;;0.40;0.40;;;18.20;1.00;;;;;;5064383;28;20176;-78
2022/08/26 00:08:13;;;;;;;0.40;0.40;;;18.20;1.00;;;;;;5063652;28;20664;-79
2022/08/26 00:10:39;;;;;;;0.30;0.30;;;18.20;1.00;;;;;;5063688;28;20172;-79
2022/08/26 00:13:05;;;;;;;0.30;0.30;;;18.10;1.00;;;;;;5064608;28;20632;-79
2022/08/26 00:15:31;;;;;;;0.30;0.30;;;18.00;24.40;;;;;;5063602;28;20507;-79
2022/08/26 00:17:57;;;;;;;0.30;0.30;;;18.10;29.10;;;;;;5063794;28;20635;-79
2022/08/26 00:20:28;;;;;;;0.37;0.37;;;18.00;25.40;;;;;;5063383;28;20171;-78
2022/08/26 00:22:54;;;;;;;0.30;0.30;;;17.90;72.30;;;;;;5063761;28;20230;-79
2022/08/26 00:25:21;;;;;;;0.30;0.30;;;18.00;49.10;;;;;;5063734;28;20179;-79
2022/08/26 00:27:47;;;;;;;0.30;0.30;;;17.90;42.90;;;;;;5063630;28;20178;-79
2022/08/26 00:30:16;;;;;;;0.50;0.50;;;17.90;59.00;;;;;;5061990;28;20635;-78
2022/08/26 00:32:41;;;;;;;0.30;0.30;;;18.00;25.20;;;;;;5062748;28;20221;-79
2022/08/26 00:35:08;;;;;;;0.33;0.33;;;17.90;43.90;;;;;;5063443;28;20533;-79
2022/08/26 00:37:34;;;;;;;0.40;0.40;;;18.00;22.80;;;;;;5063259;28;20179;-79
2022/08/26 00:40:00;;;;;;;0.40;0.40;;;18.00;1.00;;;;;;5062657;28;20175;-78
2022/08/26 00:42:26;;;;;;;0.40;0.40;;;17.90;1.00;;;;;;5063361;28;20206;-79
2022/08/26 00:44:52;;;;;;;0.40;0.40;;;17.80;32.70;;;;;;5063210;28;20194;-79
2022/08/26 00:47:32;;;;;;;0.40;0.40;;;17.60;52.20;;;;;;5063426;28;20306;-80
2022/08/26 00:50:01;;;;;;;0.37;0.37;;;17.60;78.00;;;;;;5062971;28;20536;-79
2022/08/26 00:52:27;;;;;;;0.40;0.40;;;17.70;49.20;;;;;;5062755;28;20489;-80
2022/08/26 00:55:01;;;;;;;0.33;0.33;;;17.60;99.60;;;;;;5063416;28;20183;-79
2022/08/26 00:57:27;;;;;;;0.30;0.30;;;17.60;86.20;;;;;;5063043;28;20185;-79
2022/08/26 00:59:59;;;;;;;0.30;0.30;;;17.60;69.30;;;;;;5062642;28;20262;-79
2022/08/26 01:02:25;;;;;;;0.30;0.30;;;17.60;27.80;;;;;;5062946;28;20195;-79
2022/08/26 01:04:55;;;;;;;0.40;0.40;;;17.40;47.80;;;;;;5070274;28;20202;-78
2022/08/26 01:07:22;;;;;;;0.40;0.40;;;17.20;99.90;;;;;;5070485;28;20267;-78
2022/08/26 01:09:47;;;;;;;0.30;0.30;;;17.20;99.90;;;;;;5067689;28;20187;-79
2022/08/26 01:12:13;;;;;;;0.40;0.40;;;17.20;99.90;;;;;;5062233;28;20175;-79
2022/08/26 01:14:39;;;;;;;0.40;0.40;;;17.20;99.90;;;;;;5062704;28;20195;-80
2022/08/26 01:17:06;;;;;;;0.40;0.40;;;17.10;99.90;;;;;;5062165;28;20238;-79
2022/08/26 01:19:44;;;;;;;0.40;0.40;;;17.20;99.90;;;;;;5073981;28;20209;-77
2022/08/26 01:22:25;;;;;;;0.50;0.50;;;17.30;99.90;;;;;;5076374;28;20309;-78
2022/08/26 01:24:51;;;;;;;0.50;0.50;;;17.30;99.90;;;;;;5075610;28;20238;-77
2022/08/26 01:27:19;;;;;;;0.40;0.40;;;17.20;99.90;;;;;;5076906;28;20176;-78
2022/08/26 01:29:47;;;;;;;0.50;0.50;;;17.30;99.90;;;;;;5075711;28;20170;-78
2022/08/26 01:32:18;;;;;;;0.40;0.40;;;17.30;68.90;;;;;;5064661;28;20636;-79
2022/08/26 01:34:45;;;;;;;0.40;0.40;;;17.20;68.80;;;;;;5059844;28;20258;-79
2022/08/26 01:37:15;;;;;;;0.30;0.30;;;17.20;58.20;;;;;;5059699;28;20224;-79
2022/08/26 01:39:43;;;;;;;0.30;0.30;;;17.20;61.40;;;;;;5059746;28;20174;-78
2022/08/26 01:42:11;;;;;;;0.40;0.40;;;17.30;62.10;;;;;;5060511;28;20229;-79
2022/08/26 01:44:54;;;;;;;0.50;0.50;;;17.20;75.50;;;;;;5059878;28;20207;-79
2022/08/26 01:47:22;;;;;;;0.40;0.40;;;17.20;86.30;;;;;;5060336;28;20545;-79
2022/08/26 01:49:50;;;;;;;0.40;0.40;;;17.20;99.90;;;;;;5058923;28;20636;-78
2022/08/26 01:52:21;;;;;;;0.40;0.40;;;17.10;99.90;;;;;;5059327;28;20178;-79
2022/08/26 01:54:47;;;;;;;0.33;0.33;;;17.00;99.90;;;;;;5059219;28;20262;-79
2022/08/26 01:57:14;;;;;;;0.40;0.40;;;16.90;99.90;;;;;;5059077;28;20198;-79
2022/08/26 01:59:40;;;;;;;0.40;0.40;;;16.80;99.90;;;;;;5058751;28;20179;-78
2022/08/26 02:02:06;;;;;;;0.30;0.30;;;16.90;99.90;;;;;;5057502;28;20222;-79
2022/08/26 02:04:40;;;;;;;0.40;0.40;;;16.90;99.90;;;;;;5057710;28;20572;-78
2022/08/26 02:07:08;;;;;;;0.40;0.40;;;17.00;99.90;;;;;;5058180;28;20191;-79
2022/08/26 02:09:37;;;;;;;0.33;0.33;;;17.00;99.90;;;;;;5057119;28;20183;-79
2022/08/26 02:12:03;;;;;;;0.40;0.40;;;16.80;99.90;;;;;;5058182;28;20527;-78
2022/08/26 02:14:34;;;;;;;0.40;0.40;;;16.80;99.90;;;;;;5058663;28;20286;-78
2022/08/26 02:17:02;;;;;;;0.50;0.50;;;16.80;99.90;;;;;;5058500;28;20179;-78
2022/08/26 02:19:33;;;;;;;0.50;0.50;;;16.70;99.90;;;;;;5057343;28;20173;-78
2022/08/26 02:22:03;;;;;;;0.40;0.40;;;16.60;99.90;;;;;;5058324;28;20288;-78
2022/08/26 02:24:45;;;;;;;0.40;0.40;;;16.40;99.90;;;;;;5039362;28;20192;-79
2022/08/26 02:27:12;;;;;;;0.37;0.37;;;16.60;99.90;;;;;;5056289;28;20175;-78
2022/08/26 02:29:42;;;;;;;0.40;0.40;;;16.70;99.90;;;;;;5055699;28;20230;-78
2022/08/26 02:32:09;;;;;;;0.40;0.40;;;16.70;99.90;;;;;;5056819;28;20185;-79
2022/08/26 02:34:35;;;;;;;0.40;0.40;;;16.70;99.90;;;;;;5059983;28;20203;-78
2022/08/26 02:37:07;;;;;;;0.40;0.40;;;16.70;99.90;;;;;;5060445;28;20190;-78
2022/08/26 02:39:34;;;;;;;0.43;0.43;;;16.60;99.90;;;;;;5059367;28;20610;-78
2022/08/26 02:41:59;;;;;;;0.30;0.30;;;16.70;99.90;;;;;;5060493;28;20448;-78
2022/08/26 02:44:26;;;;;;;0.33;0.33;;;16.40;99.90;;;;;;5060556;28;20696;-78
2022/08/26 02:46:53;;;;;;;0.30;0.30;;;16.30;99.90;;;;;;5060564;28;20261;-78
2022/08/26 02:49:18;;;;;;;0.30;0.30;;;16.40;99.90;;;;;;5059558;28;20205;-78
2022/08/26 02:51:45;;;;;;;0.30;0.30;;;16.50;99.90;;;;;;5060668;28;20171;-78
2022/08/26 02:54:11;;;;;;;0.40;0.40;;;16.50;99.90;;;;;;5061198;28;20729;-78
2022/08/26 02:56:37;;;;;;;0.40;0.40;;;16.50;99.90;;;;;;5060871;28;20190;-78
2022/08/26 02:59:03;;;;;;;0.30;0.30;;;16.50;99.90;;;;;;5059929;28;20167;-78
2022/08/26 03:01:32;;;;;;;0.40;0.40;;;16.30;99.90;;;;;;5059998;28;20680;-77
2022/08/26 03:04:00;;;;;;;0.30;0.30;;;16.30;99.90;;;;;;5060386;28;20662;-77
2022/08/26 03:06:26;;;;;;;0.50;0.50;;;16.30;99.90;;;;;;5060320;28;20198;-78
2022/08/26 03:08:52;;;;;;;0.40;0.40;;;16.40;99.90;;;;;;5062067;28;20183;-77
2022/08/26 03:11:18;;;;;;;0.47;0.47;;;16.40;99.90;;;;;;5074623;28;20182;-77
2022/08/26 03:13:44;;;;;;;0.30;0.30;;;16.30;99.90;;;;;;5077198;28;20230;-77
2022/08/26 03:16:10;;;;;;;0.40;0.40;;;16.30;99.90;;;;;;5077232;28;20206;-77
2022/08/26 03:18:36;;;;;;;0.50;0.50;;;16.40;99.90;;;;;;5077242;28;20183;-77
2022/08/26 03:21:09;;;;;;;0.30;0.30;;;16.40;99.90;;;;;;5076086;28;20232;-77
2022/08/26 03:23:37;;;;;;;0.47;0.47;;;16.40;99.90;;;;;;5076401;28;20191;-77
2022/08/26 03:26:04;;;;;;;0.50;0.50;;;16.30;99.90;;;;;;5076564;28;20239;-78
2022/08/26 03:28:30;;;;;;;0.40;0.40;;;16.30;99.90;;;;;;5076014;28;20186;-77
2022/08/26 03:30:56;;;;;;;0.30;0.30;;;16.20;99.90;;;;;;5076289;28;20164;-76
2022/08/26 03:33:23;;;;;;;0.30;0.30;;;16.00;99.90;;;;;;5076351;28;20206;-76
2022/08/26 03:35:51;;;;;;;0.40;0.40;;;15.70;99.90;;;;;;5076006;28;20209;-78
2022/08/26 03:38:20;;;;;;;0.43;0.43;;;16.00;99.90;;;;;;5074919;28;20175;-78
2022/08/26 03:40:47;;;;;;;0.40;0.40;;;16.10;99.90;;;;;;5073499;28;20203;-78
2022/08/26 03:43:15;;;;;;;0.40;0.40;;;16.00;99.90;;;;;;5072971;28;20348;-78
2022/08/26 03:45:41;;;;;;;0.30;0.30;;;15.80;99.90;;;;;;5072935;28;20183;-79
2022/08/26 03:48:06;;;;;;;0.50;0.50;;;15.80;99.90;;;;;;5073992;28;20183;-78
2022/08/26 03:50:32;;;;;;;0.47;0.47;;;15.80;99.90;;;;;;5073017;28;20205;-78
2022/08/26 03:52:58;;;;;;;0.47;0.47;;;15.80;99.90;;;;;;5072162;28;20244;-78
2022/08/26 03:55:26;;;;;;;0.50;0.50;;;15.90;99.90;;;;;;5070967;28;20167;-78
2022/08/26 03:57:52;;;;;;;0.50;0.50;;;15.90;99.90;;;;;;5070777;28;20179;-78
2022/08/26 04:00:18;;;;;;;0.40;0.40;;;15.80;99.90;;;;;;5070529;28;20175;-79
2022/08/26 04:02:47;;;;;;;0.50;0.50;;;15.80;99.90;;;;;;5071318;28;20207;-78
2022/08/26 04:05:14;;;;;;;0.30;0.30;;;15.80;99.90;;;;;;5055472;28;20188;-78
2022/08/26 04:07:41;;;;;;;0.30;0.30;;;15.80;99.90;;;;;;5072497;28;20191;-78
2022/08/26 04:10:09;;;;;;;0.40;0.40;;;15.80;99.90;;;;;;5071458;28;20179;-78
2022/08/26 04:12:36;;;;;;;0.40;0.40;;;15.90;99.90;;;;;;5071484;28;20400;-78
2022/08/26 04:15:05;;;;;;;0.40;0.40;;;15.90;99.90;;;;;;5072494;28;20179;-78
2022/08/26 04:17:30;;;;;;;0.40;0.40;;;15.90;99.90;;;;;;5072493;28;20236;-78
2022/08/26 04:19:56;;;;;;;0.30;0.30;;;15.80;99.90;;;;;;5072141;28;20183;-77
2022/08/26 04:22:21;;;;;;;0.40;0.40;;;15.90;99.90;;;;;;5070817;28;20640;-78
2022/08/26 04:24:47;;;;;;;0.40;0.40;;;15.80;99.90;;;;;;5070399;28;20345;-78
2022/08/26 04:27:13;;;;;;;0.30;0.30;;;15.90;99.90;;;;;;5072832;28;20183;-78
2022/08/26 04:29:40;;;;;;;0.30;0.30;;;15.70;99.90;;;;;;5071468;28;20179;-77
2022/08/26 04:32:07;;;;;;;0.40;0.40;;;15.70;99.90;;;;;;5071435;28;20171;-77
2022/08/26 04:34:34;;;;;;;0.40;0.40;;;15.70;99.90;;;;;;5069809;28;20199;-78
2022/08/26 04:36:59;;;;;;;0.50;0.50;;;15.80;99.90;;;;;;5070846;28;20178;-78
2022/08/26 04:39:26;;;;;;;0.50;0.50;;;15.50;99.90;;;;;;5072493;28;20171;-78
2022/08/26 04:41:55;;;;;;;0.40;0.40;;;15.40;99.90;;;;;;5072260;28;20214;-78
2022/08/26 04:44:23;;;;;;;0.40;0.40;;;15.40;99.90;;;;;;5071444;28;20214;-77
2022/08/26 04:46:49;;;;;;;0.40;0.40;;;15.50;99.90;;;;;;5047206;28;20181;-79
2022/08/26 04:49:14;;;;;;;0.50;0.50;;;15.60;99.90;;;;;;5059775;28;20651;-79
2022/08/26 04:51:40;;;;;;;0.40;0.40;;;15.70;99.90;;;;;;5063250;28;20175;-79
2022/08/26 04:54:06;;;;;;;0.40;0.40;;;15.70;99.90;;;;;;5062811;28;20205;-79
2022/08/26 04:56:34;;;;;;;0.40;0.40;;;15.60;99.90;;;;;;5062583;28;20175;-79
2022/08/26 04:59:02;;;;;;;0.40;0.40;;;15.60;99.90;;;;;;5062271;28;20175;-79
2022/08/26 05:01:30;;;;;;;0.40;0.40;;;15.60;99.90;;;;;;5063525;28;20218;-80
2022/08/26 05:03:56;;;;;;;0.30;0.30;;;15.60;99.90;;;;;;5062482;28;20281;-79
2022/08/26 05:06:21;;;;;;;0.40;0.40;;;15.80;99.90;;;;;;5063580;28;20198;-79
2022/08/26 05:08:47;;;;;;;0.40;0.40;;;16.00;99.90;;;;;;5069111;28;20175;-78
2022/08/26 05:11:12;;;;;;;0.40;0.40;;;15.90;99.90;;;;;;5071228;28;20190;-79
2022/08/26 05:13:39;;;;;;;0.50;0.50;;;15.90;99.90;;;;;;5070657;28;20188;-79
2022/08/26 05:16:07;;;;;;;0.40;0.40;;;16.10;99.90;;;;;;5061539;28;20179;-79
2022/08/26 05:18:33;;;;;;;0.33;0.33;;;16.30;99.90;;;;;;5060550;28;20183;-79
2022/08/26 05:21:01;;;;;;;0.37;0.37;;;16.40;99.90;;;;;;5057961;28;20233;-81
2022/08/26 05:23:27;;;;;;;0.50;0.50;;;16.60;99.90;;;;;;5061885;28;20235;-78
2022/08/26 05:25:54;;;;;;;0.30;0.30;;;16.70;99.90;;;;;;5061547;28;20191;-79
2022/08/26 05:28:20;;;;;;;0.30;0.30;;;16.60;99.90;;;;;;5060697;28;20175;-78
2022/08/26 05:30:47;;;;;;;0.30;0.30;;;16.40;99.90;;;;;;5059054;28;20205;-78
2022/08/26 05:33:13;;;;;;;0.50;0.50;;;16.50;99.90;;;;;;5057881;28;20203;-78
2022/08/26 05:35:39;;;;;;;0.33;0.33;;;16.50;99.90;;;;;;5060509;28;20293;-79
2022/08/26 05:38:08;;;;;;;0.30;0.30;;;16.60;99.90;;;;;;5060411;28;20500;-79
2022/08/26 05:40:40;;;;;;;0.40;0.40;;;16.70;99.90;;;;;;5062713;28;20183;-78
2022/08/26 05:43:09;;;;;;;0.30;0.30;;;16.80;99.90;;;;;;5063835;28;20191;-78
2022/08/26 05:46:01;;;;;;;0.30;0.30;;;16.90;99.90;;;;;;5063825;28;20175;-77
2022/08/26 05:48:26;;;;;;;0.40;0.40;;;17.10;99.90;;;;;;5073797;28;20174;-77
2022/08/26 05:50:52;;;;;;;0.40;0.40;;;16.90;99.90;;;;;;5075685;28;20227;-77
2022/08/26 05:53:19;;;;;;;0.40;0.40;;;16.80;99.90;;;;;;5072958;28;20562;-78
2022/08/26 05:55:51;;;;;;;0.30;0.30;;;16.60;99.90;;;;;;5066366;28;20175;-78
2022/08/26 05:58:19;;;;;;;0.30;0.30;;;16.60;99.90;;;;;;5066226;28;20213;-83
2022/08/26 06:00:54;;;;;;;0.40;0.40;;;16.60;99.90;;;;;;5065635;28;20175;-81
2022/08/26 06:03:20;;;;;;;0.40;0.40;;;16.70;99.90;;;;;;5064836;28;20222;-81
2022/08/26 06:05:45;;;;;;;0.40;0.40;;;16.80;99.90;;;;;;5066616;28;20175;-81
2022/08/26 06:08:12;;;;;;;0.40;0.40;;;16.90;99.90;;;;;;5065069;28;20195;-79
2022/08/26 06:10:46;;;;;;;0.30;0.30;;;17.10;99.90;;;;;;5063707;28;20186;-80
2022/08/26 06:13:12;;;;;;;0.50;0.50;;;17.10;99.90;;;;;;5066348;28;20199;-80
2022/08/26 06:15:46;;;;;;;0.40;0.40;;;17.50;99.90;;;;;;5060888;28;20254;-80
2022/08/26 06:18:14;;;;;;;0.43;0.43;;;17.40;99.90;;;;;;5063332;28;20193;-79
2022/08/26 06:20:43;;;;;;;0.50;0.50;;;17.90;99.90;;;;;;5064192;28;20179;-80
2022/08/26 06:26:03;;;;;;;0.37;0.37;;;18.20;38.90;;;;;;5047649;28;20183;-80
2022/08/26 06:28:29;;;;;;;0.40;0.40;;;18.30;44.90;;;;;;5043877;28;20182;-79
2022/08/26 06:30:55;;;;;;;0.47;0.47;;;18.50;1.00;;;;;;5041301;28;20236;-79
2022/08/26 06:33:22;;;;;;;0.30;0.30;;;18.50;10.50;;;;;;5046528;28;20219;-79
2022/08/26 06:35:49;;;;;;;0.40;0.40;;;18.90;1.00;;;;;;5046528;28;20207;-80
2022/08/26 06:38:14;;;;;;;0.30;0.30;;;18.20;31.60;;;;;;5049676;28;20172;-80
2022/08/26 06:40:47;;;;;;;0.30;0.30;;;18.20;30.90;;;;;;5050531;28;20236;-80
2022/08/26 06:43:21;;;;;;;0.40;0.40;;;18.10;79.60;;;;;;5065979;28;20238;-81
2022/08/26 06:45:47;;;;;;;0.30;0.30;;;18.10;99.90;;;;;;5061404;28;20206;-81
2022/08/26 06:48:15;;;;;;;0.30;0.30;;;18.30;37.20;;;;;;5052831;28;20624;-82
2022/08/26 06:50:42;;;;;;;0.37;0.37;;;18.50;18.90;;;;;;5065524;28;20182;-83
2022/08/26 06:53:09;;;;;;;0.40;0.40;;;18.80;1.00;;;;;;5063244;28;20210;-81
2022/08/26 06:55:39;;;;;;;0.40;0.40;;;18.70;1.00;;;;;;5061704;28;20270;-81
2022/08/26 06:58:05;;;;;;;0.40;0.40;;;19.00;1.00;;;;;;5062172;28;20274;-80
2022/08/26 07:00:32;;;;;;;0.40;0.40;;;19.10;1.00;;;;;;5062307;28;20179;-81
2022/08/26 07:02:57;;;;;;;0.40;0.40;;;19.50;1.00;;;;;;5062566;28;20575;-81
2022/08/26 07:05:24;;;;;;;0.40;0.40;;;19.50;1.00;;;;;;5059436;28;20183;-80
2022/08/26 07:07:51;;;;;;;0.40;0.40;;;19.50;1.00;;;;;;5053900;28;20230;-81
2022/08/26 07:10:17;;;;;;;0.40;0.40;;;19.50;1.00;;;;;;5053754;28;20175;-81
2022/08/26 07:12:43;;;;;;;0.30;0.30;;;19.60;1.00;;;;;;5056284;28;20259;-82
2022/08/26 07:15:09;;;;;;;0.30;0.30;;;19.70;1.00;;;;;;5050891;28;20645;-80
2022/08/26 07:17:35;;;;;;;0.30;0.30;;;20.20;1.00;;;;;;5036931;28;20555;-80
2022/08/26 07:20:02;;;;;;;0.30;0.30;;;21.20;1.00;;;;;;5050285;28;20191;-80
2022/08/26 07:22:27;;;;;;;0.30;0.30;;;21.60;99.90;;;;;;5061786;28;20203;-80
2022/08/26 07:24:53;;;;;;;0.40;0.40;;;22.40;1.00;;;;;;5062791;28;20541;-81
2022/08/26 07:27:19;;;;;;;0.30;0.30;;;22.90;99.90;;;;;;5065772;28;20549;-79
2022/08/26 07:29:45;;;;;;;0.40;0.40;;;23.30;99.90;;;;;;5063612;28;20179;-77
2022/08/26 07:32:14;;;;;;;0.40;0.40;;;23.20;99.90;;;;;;5066079;28;20206;-79
2022/08/26 07:34:40;;;;;;;0.30;0.30;;;23.90;13.80;;;;;;5065788;28;20311;-80
2022/08/26 07:37:06;;;;;;;0.40;0.40;;;23.90;1.00;;;;;;5068408;28;20175;-79
2022/08/26 07:39:31;;;;;;;0.40;0.40;;;24.20;1.00;;;;;;5066115;28;20180;-80
2022/08/26 07:41:58;;;;;;;0.40;0.40;;;24.30;1.00;;;;;;5065701;28;20570;-79
2022/08/26 07:44:25;;;;;;;0.40;0.40;;;24.40;1.00;;;;;;5065268;28;20199;-80
2022/08/26 07:46:51;;;;;;;0.50;0.50;;;24.40;1.00;;;;;;5069079;28;20239;-79
2022/08/26 07:49:18;;;;;;;0.30;0.30;;;25.00;1.00;;;;;;5067571;28;20171;-80
2022/08/26 07:51:44;;;;;;;0.47;0.47;;;24.50;1.00;;;;;;5067100;28;20524;-79
2022/08/26 07:54:09;;;;;;;0.47;0.47;;;24.80;1.00;;;;;;5067323;28;20201;-81
2022/08/26 07:56:35;;;;;;;0.50;0.50;;;25.00;1.00;;;;;;5067015;28;20171;-82
2022/08/26 07:59:01;;;;;;;0.50;0.50;;;25.00;1.00;;;;;;5068297;28;20167;-80
2022/08/26 08:01:28;;;;;;;0.30;0.30;;;25.00;1.00;;;;;;5066085;28;20218;-80
2022/08/26 08:03:54;;;;;;;0.50;0.50;;;24.50;1.00;;;;;;5066785;28;20223;-81
2022/08/26 08:06:22;;;;;;;0.37;0.37;;;24.50;1.00;;;;;;5065411;28;20253;-79
2022/08/26 08:08:48;;;;;;;0.47;0.47;;;25.10;1.00;;;;;;5065316;28;20175;-81
2022/08/26 08:11:14;;;;;;;0.50;0.50;;;25.20;1.00;;;;;;5063829;28;20194;-80
2022/08/26 08:13:40;;;;;;;0.50;0.50;;;25.40;1.00;;;;;;5065784;28;20194;-80
2022/08/26 08:16:06;;;;;;;0.50;0.50;;;24.50;1.00;;;;;;5064901;28;20245;-79
2022/08/26 08:18:32;;;;;;;0.50;0.50;;;24.30;1.00;;;;;;5062065;28;20172;-80
2022/08/26 08:21:00;;;;;;;0.43;0.43;;;24.00;1.00;;;;;;5064271;28;20202;-81
2022/08/26 08:23:26;;;;;;;0.47;0.47;;;24.00;1.00;;;;;;5065122;28;20217;-81
2022/08/26 08:26:06;;;;;;;0.40;0.40;;;23.80;1.00;;;;;;5063764;28;20289;-79
2022/08/26 08:28:33;;;;;;;0.40;0.40;;;24.20;1.00;;;;;;5064018;28;20174;-82
2022/08/26 08:30:58;;;;;;;0.40;0.40;;;24.10;1.00;;;;;;5064221;28;20247;-81
2022/08/26 08:33:24;;;;;;;0.40;0.40;;;23.80;1.00;;;;;;5062474;28;20195;-82
2022/08/26 08:35:51;;;;;;;0.40;0.40;;;23.80;1.00;;;;;;5063953;28;20242;-80
2022/08/26 08:38:17;;;;;;;0.40;0.40;;;23.80;1.00;;;;;;5069015;28;20167;-79
2022/08/26 08:40:44;;;;;;;0.33;0.33;;;24.80;1.00;;;;;;5074290;28;20186;-80
2022/08/26 08:43:40;;;;;;;0.40;0.40;;;25.30;1.00;;;;;;5075403;28;20210;-79
2022/08/26 08:46:12;;;;;;;0.60;0.60;;;26.30;1.00;;;;;;5076165;28;20235;-80
2022/08/26 08:48:43;;;;;;;0.50;0.50;;;26.40;1.00;;;;;;5074191;28;20179;-79
2022/08/26 08:51:18;;;;;;;0.40;0.40;;;26.40;1.00;;;;;;5062495;28;20290;-80
2022/08/26 08:53:48;;;;;;;0.50;0.50;;;27.10;1.00;;;;;;5060715;28;20214;-80
2022/08/26 08:56:27;;;;;;;0.68;0.68;;;27.40;1.00;;;;;;5060972;28;20233;-82
2022/08/26 08:58:56;;;;;;;0.40;0.40;;;27.70;1.00;;;;;;5060626;28;20179;-80
2022/08/26 09:01:39;;;;;;;0.60;0.60;;;27.90;1.00;;;;;;5060355;28;20211;-81
2022/08/26 09:04:42;;;;;;;0.57;0.57;;;28.20;1.00;;;;;;5062928;28;20194;-78
2022/08/26 09:07:12;;;;;;;0.40;0.40;;;28.50;1.00;;;;;;5042053;28;20198;-80
2022/08/26 09:09:43;;;;;;;0.40;0.40;;;29.40;1.00;;;;;;5057847;28;20167;-81
2022/08/26 09:12:15;;;;;;;0.30;0.30;;;29.80;1.00;;;;;;5055813;28;20180;-84
2022/08/26 09:14:43;;;;;;;0.20;0.20;;;30.60;1.00;;;;;;5055035;28;20668;-79
2022/08/26 09:17:32;;;;;;;0.10;0.10;;;30.90;1.00;;;;;;5055196;28;20179;-80
2022/08/26 09:20:37;;;;;;;0.20;0.20;;;30.60;1.00;;;;;;5052805;28;20183;-79
2022/08/26 09:23:02;;;;;;;0.10;0.10;;;30.60;1.00;;;;;;5053953;28;20217;-80
2022/08/26 09:25:28;;;;;;;0.15;0.15;;;31.30;1.00;;;;;;5055672;28;20265;-81
2022/08/26 09:27:53;;;;;;;0.20;0.20;;;30.60;1.00;;;;;;5056003;28;20273;-82
2022/08/26 09:30:29;;;;;;;0.10;0.10;;;31.20;1.00;;;;;;5055009;28;20179;-81
2022/08/26 09:33:00;;;;;;;0.15;0.15;;;32.60;1.00;;;;;;5055940;28;20198;-81
2022/08/26 09:35:35;;;;;;;0.10;0.10;;;32.40;1.00;;;;;;5055679;28;20179;-79
2022/08/26 09:38:01;;;;;;;0.10;0.10;;;31.50;1.00;;;;;;5038131;28;20201;-78
2022/08/26 09:40:33;;;;;;;0.10;0.10;;;31.10;1.00;;;;;;5059564;28;20258;-79
2022/08/26 09:43:12;;;;;;;0.10;0.10;;;31.00;1.00;;;;;;5058190;28;20225;-78
2022/08/26 09:45:40;;;;;;;0.20;0.20;;;31.50;1.00;;;;;;5057071;28;20185;-80
2022/08/26 09:48:07;;;;;;;0.03;0.03;;;31.60;1.00;;;;;;5054396;28;20603;-80
2022/08/26 09:50:53;;;;;;;0.10;0.10;;;31.20;1.00;;;;;;5054486;28;20236;-79
2022/08/26 09:53:26;;;;;;;0.20;0.20;;;32.50;1.00;;;;;;5056745;28;20218;-79
2022/08/26 09:56:22;;;;;;;0.20;0.20;;;33.00;1.00;;;;;;5057065;28;20209;-79
2022/08/26 09:58:47;;;;;;;0.25;0.25;;;32.90;1.00;;;;;;5054928;28;20167;-80
2022/08/26 10:01:30;;;;;;;0.20;0.20;;;33.20;1.00;;;;;;5056334;28;20227;-80
2022/08/26 10:04:13;;;;;;;0.30;0.30;;;33.20;1.00;;;;;;5054504;28;20230;-78
2022/08/26 10:06:57;;;;;;;0.20;0.20;;;32.90;1.00;;;;;;5055159;28;20187;-81
2022/08/26 10:09:24;;;;;;;0.28;0.28;;;32.20;1.00;;;;;;5054015;28;20243;-79
2022/08/26 10:11:57;;;;;;;0.20;0.20;;;32.00;1.00;;;;;;5053037;28;20255;-78
2022/08/26 10:14:41;;;;;;;0.10;0.10;;;32.70;1.00;;;;;;5053071;28;20199;-78
2022/08/26 10:17:10;;;;;;;0.10;0.10;;;32.80;1.00;;;;;;5053415;28;20175;-81
2022/08/26 10:19:51;;;;;;;0.20;0.20;;;31.90;1.00;;;;;;5052396;28;20179;-78
2022/08/26 10:22:26;;;;;;;0.00;0.00;;;32.00;1.00;;;;;;5052572;28;20577;-80
2022/08/26 10:24:59;;;;;;;0.20;0.20;;;32.50;1.00;;;;;;5053023;28;20182;-78
2022/08/26 10:27:36;;;;;;;0.20;0.20;;;32.50;1.00;;;;;;5055541;28;20652;-80
2022/08/26 10:30:23;;;;;;;0.10;0.10;;;32.90;1.00;;;;;;5056143;28;20510;-79
2022/08/26 10:32:56;;;;;;;0.30;0.30;;;32.90;1.00;;;;;;5056369;28;20199;-79
2022/08/26 10:35:22;;;;;;;0.20;0.20;;;32.60;1.00;;;;;;5052914;28;20285;-79
2022/08/26 10:37:55;;;;;;;0.10;0.10;;;33.40;1.00;;;;;;5047215;28;20187;-78
2022/08/26 10:40:45;;;;;;;0.00;0.00;;;33.70;1.00;;;;;;5035057;28;20179;-80
2022/08/26 10:43:20;;;;;;;0.10;0.10;;;33.40;1.00;;;;;;5037202;28;20215;-79
2022/08/26 10:45:55;;;;;;;0.17;0.17;;;34.20;1.00;;;;;;5036175;28;20265;-78
2022/08/26 10:48:33;;;;;;;0.20;0.20;;;33.60;1.00;;;;;;5035646;28;20206;-79
2022/08/26 10:51:01;;;;;;;0.10;0.10;;;33.30;1.00;;;;;;5034515;28;20199;-79
2022/08/26 10:54:02;;;;;;;0.08;0.08;;;33.50;1.00;;;;;;5034776;28;20191;-79
2022/08/26 10:56:52;;;;;;;0.20;0.20;;;33.60;1.00;;;;;;5015082;28;20180;-78
2022/08/26 10:59:30;;;;;;;0.10;0.10;;;32.90;1.00;;;;;;5035794;28;20243;-79
2022/08/26 11:01:56;;;;;;;0.35;0.35;;;33.70;1.00;;;;;;5039166;28;20615;-79
2022/08/26 11:04:48;;;;;;;0.10;0.10;;;34.50;1.00;;;;;;5040398;28;20195;-80
2022/08/26 11:07:42;;;;;;;0.10;0.10;;;34.10;1.00;;;;;;5037392;28;20199;-79
2022/08/26 11:10:17;;;;;;;0.38;0.38;;;33.80;1.00;;;;;;5036746;28;20179;-79
2022/08/26 11:12:44;;;;;;;0.30;0.30;;;34.50;1.00;;;;;;5038143;28;20187;-80
2022/08/26 11:15:18;;;;;;;0.10;0.10;;;35.00;1.00;;;;;;5039102;28;20202;-81
2022/08/26 11:17:44;;;;;;;0.10;0.10;;;35.00;1.00;;;;;;5057008;28;20178;-78
2022/08/26 11:20:35;;;;;;;0.10;0.10;;;34.60;1.00;;;;;;5058375;28;20710;-80
2022/08/26 11:23:21;;;;;;;0.10;0.10;;;34.50;1.00;;;;;;5057147;28;20215;-81
2022/08/26 11:25:55;;;;;;;0.20;0.20;;;34.60;1.00;;;;;;5057509;28;20241;-81
2022/08/26 11:28:38;;;;;;;0.20;0.20;;;34.70;1.00;;;;;;5057275;28;20250;-81
2022/08/26 11:31:08;;;;;;;0.10;0.10;;;34.80;1.00;;;;;;5056257;28;20189;-82
2022/08/26 11:33:50;;;;;;;0.10;0.10;;;34.80;1.00;;;;;;5057972;28;20198;-79
2022/08/26 11:36:45;;;;;;;0.10;0.10;;;34.80;1.00;;;;;;5055645;28;20171;-80
2022/08/26 11:39:52;;;;;;;0.20;0.20;;;35.20;1.00;;;;;;5037070;28;20183;-80
2022/08/26 11:42:27;;;;;;;0.20;0.20;;;34.70;1.00;;;;;;5049991;28;20699;-81
2022/08/26 11:44:55;;;;;;;0.20;0.20;;;35.10;1.00;;;;;;5046833;28;20591;-79
2022/08/26 11:47:30;;;;;;;0.10;0.10;;;35.10;1.00;;;;;;5058709;28;20171;-81
2022/08/26 11:50:25;;;;;;;0.15;0.15;;;35.10;1.00;;;;;;5058371;28;20217;-79
2022/08/26 11:53:03;;;;;;;0.30;0.30;;;35.20;1.00;;;;;;5055003;28;20244;-81
2022/08/26 11:55:40;;;;;;;0.13;0.13;;;34.70;1.00;;;;;;5055308;28;20183;-81
2022/08/26 11:58:06;;;;;;;0.20;0.20;;;33.20;1.00;;;;;;5057022;28;20183;-80
2022/08/26 12:00:51;;;;;;;0.35;0.35;;;32.60;1.00;;;;;;5056067;28;20254;-81
2022/08/26 12:03:25;;;;;;;0.40;0.40;;;32.50;1.00;;;;;;5056459;28;20203;-82
2022/08/26 12:05:52;;;;;;;0.35;0.35;;;32.80;1.00;;;;;;5054831;28;20247;-83
2022/08/26 12:08:21;;;;;;;0.30;0.30;;;31.90;1.00;;;;;;5056013;28;20277;-82
2022/08/26 12:10:47;;;;;;;0.50;0.50;;;31.30;1.00;;;;;;5055282;28;20176;-84
2022/08/26 12:13:24;;;;;;;0.50;0.50;;;31.20;1.00;;;;;;5038051;28;20202;-82
2022/08/26 12:15:59;;;;;;;0.60;0.60;;;31.60;1.00;;;;;;5055928;28;20183;-84
2022/08/26 12:18:29;;;;;;;0.50;0.50;;;31.00;1.00;;;;;;5056137;28;20190;-82
2022/08/26 12:20:55;;;;;;;0.60;0.60;;;30.60;1.00;;;;;;5037097;28;20233;-81
2022/08/26 12:23:25;;;;;;;0.50;0.50;;;30.80;1.00;;;;;;5056379;28;20215;-82
2022/08/26 12:26:01;;;;;;;0.40;0.40;;;30.20;1.00;;;;;;5055480;28;20171;-82
2022/08/26 12:28:27;;;;;;;0.50;0.50;;;30.70;1.00;;;;;;5059645;28;20174;-82
2022/08/26 12:31:04;;;;;;;0.60;0.60;;;31.00;1.00;;;;;;5074891;28;20171;-83
2022/08/26 12:33:32;;;;;;;0.50;0.50;;;31.90;1.00;;;;;;5075310;28;20194;-82
2022/08/26 12:36:00;;;;;;;0.60;0.60;;;31.30;1.00;;;;;;5075805;28;20178;-83
2022/08/26 12:38:27;;;;;;;0.40;0.40;;;32.00;1.00;;;;;;5075108;28;20182;-83
2022/08/26 12:40:54;;;;;;;0.40;0.40;;;32.00;1.00;;;;;;5074297;28;20640;-82
2022/08/26 12:43:41;;;;;;;0.50;0.50;;;31.70;1.00;;;;;;5072831;28;20770;-79
2022/08/26 12:46:12;;;;;;;0.63;0.63;;;31.20;1.00;;;;;;5055120;28;20186;-79
2022/08/26 12:48:42;;;;;;;0.67;0.67;;;31.10;1.00;;;;;;5055184;28;20167;-80
2022/08/26 12:51:21;;;;;;;0.40;0.40;;;31.40;1.00;;;;;;5036793;28;20194;-81
2022/08/26 12:53:46;;;;;;;0.50;0.50;;;30.90;1.00;;;;;;5055058;28;20203;-80
2022/08/26 12:56:44;;;;;;;0.50;0.50;;;31.20;1.00;;;;;;5055451;28;20237;-78
2022/08/26 12:59:25;;;;;;;0.60;0.60;;;31.50;1.00;;;;;;5010140;28;20282;-79
2022/08/26 13:01:51;;;;;;;0.47;0.47;;;31.80;1.00;;;;;;5054784;28;20652;-79
2022/08/26 13:04:36;;;;;;;0.60;0.60;;;31.80;1.00;;;;;;5056016;28;20205;-80
2022/08/26 13:07:23;;;;;;;0.53;0.53;;;31.20;1.00;;;;;;5054537;28;20724;-78
2022/08/26 13:09:50;;;;;;;0.50;0.50;;;30.90;1.00;;;;;;5053675;28;20229;-79
2022/08/26 13:12:24;;;;;;;0.60;0.60;;;31.70;1.00;;;;;;5050895;28;20178;-79